Terminal Aerodrome Forecast
Issued by NWS

Home | Current Version | Previous Version | Graphics & Text | Print | Product List | Glossary On
Versions: 1 2 3 4 5 6 7 8 9 10 11 12 13 14
000
FTUS43 KBIS 060521
TAFJMS
TAF
KJMS 060521Z 0606/0706 14013KT P6SM BKN070
     FM061300 13014KT 5SM -SHRA BR BKN010 OVC030
     FM061600 15013KT 5SM SHRA OVC012=

USA.gov is the U.S. government's official web portal to all federal, state and local government web resources and services.